sensor_id;sensor_type;location;lat;lon;timestamp;pressure;altitude;pressure_sealevel;temperature;humidity
24858;BME280;12935;50.782;6.074;2024-03-29T00:02:01;97236.34;;;9.08;85.63
24858;BME280;12935;50.782;6.074;2024-03-29T00:04:27;97222.84;;;9.05;85.88
24858;BME280;12935;50.782;6.074;2024-03-29T00:06:54;97223.59;;;9.05;85.63
24858;BME280;12935;50.782;6.074;2024-03-29T00:09:20;97196.81;;;8.91;85.89
24858;BME280;12935;50.782;6.074;2024-03-29T00:11:45;97223.25;;;9.03;85.94
24858;BME280;12935;50.782;6.074;2024-03-29T00:14:11;97227.97;;;8.90;86.14
24858;BME280;12935;50.782;6.074;2024-03-29T00:16:36;97216.09;;;8.97;86.07
24858;BME280;12935;50.782;6.074;2024-03-29T00:19:01;97231.88;;;9.02;86.17
24858;BME280;12935;50.782;6.074;2024-03-29T00:21:27;97229.03;;;9.05;85.92
24858;BME280;12935;50.782;6.074;2024-03-29T00:23:53;97230.91;;;9.08;85.14
24858;BME280;12935;50.782;6.074;2024-03-29T00:26:19;97234.38;;;9.09;85.41
24858;BME280;12935;50.782;6.074;2024-03-29T00:28:45;97229.38;;;9.07;85.07
24858;BME280;12935;50.782;6.074;2024-03-29T00:31:11;97230.91;;;9.08;85.03
24858;BME280;12935;50.782;6.074;2024-03-29T00:33:36;97238.19;;;9.11;85.21
24858;BME280;12935;50.782;6.074;2024-03-29T00:36:02;97246.38;;;9.11;84.57
24858;BME280;12935;50.782;6.074;2024-03-29T00:38:29;97254.72;;;9.17;84.22
24858;BME280;12935;50.782;6.074;2024-03-29T00:40:55;97247.22;;;9.21;83.76
24858;BME280;12935;50.782;6.074;2024-03-29T00:43:21;97231.50;;;9.25;83.43
24858;BME280;12935;50.782;6.074;2024-03-29T00:45:47;97224.28;;;9.31;83.24
24858;BME280;12935;50.782;6.074;2024-03-29T00:48:13;97229.63;;;9.35;82.36
24858;BME280;12935;50.782;6.074;2024-03-29T00:50:41;97217.63;;;9.32;82.27
24858;BME280;12935;50.782;6.074;2024-03-29T00:53:07;97215.13;;;9.38;81.93
24858;BME280;12935;50.782;6.074;2024-03-29T00:55:34;97209.25;;;9.39;81.44
24858;BME280;12935;50.782;6.074;2024-03-29T00:57:59;97217.97;;;9.34;81.56
24858;BME280;12935;50.782;6.074;2024-03-29T01:00:26;97230.28;;;9.39;81.48
24858;BME280;12935;50.782;6.074;2024-03-29T01:02:52;97241.50;;;9.41;81.68
24858;BME280;12935;50.782;6.074;2024-03-29T01:05:18;97241.34;;;9.44;81.32
24858;BME280;12935;50.782;6.074;2024-03-29T01:07:45;97238.13;;;9.37;81.75
24858;BME280;12935;50.782;6.074;2024-03-29T01:10:11;97236.81;;;9.41;81.48
24858;BME280;12935;50.782;6.074;2024-03-29T01:12:37;97249.84;;;9.46;80.99
24858;BME280;12935;50.782;6.074;2024-03-29T01:15:05;97258.13;;;9.56;80.74
24858;BME280;12935;50.782;6.074;2024-03-29T01:17:31;97270.13;;;9.58;80.32
24858;BME280;12935;50.782;6.074;2024-03-29T01:19:57;97252.00;;;9.64;80.20
24858;BME280;12935;50.782;6.074;2024-03-29T01:22:24;97250.78;;;9.65;78.77
24858;BME280;12935;50.782;6.074;2024-03-29T01:24:49;97246.09;;;9.66;79.26
24858;BME280;12935;50.782;6.074;2024-03-29T01:27:15;97233.09;;;9.70;78.08
24858;BME280;12935;50.782;6.074;2024-03-29T01:29:41;97226.78;;;9.73;78.13
24858;BME280;12935;50.782;6.074;2024-03-29T01:32:07;97227.84;;;9.75;77.71
24858;BME280;12935;50.782;6.074;2024-03-29T01:34:33;97234.69;;;9.80;77.28
24858;BME280;12935;50.782;6.074;2024-03-29T01:36:59;97232.09;;;9.76;76.53
24858;BME280;12935;50.782;6.074;2024-03-29T01:39:24;97233.03;;;9.82;75.65
24858;BME280;12935;50.782;6.074;2024-03-29T01:41:56;97207.75;;;9.82;74.92
24858;BME280;12935;50.782;6.074;2024-03-29T01:44:22;97211.22;;;9.82;74.51
24858;BME280;12935;50.782;6.074;2024-03-29T01:46:49;97217.78;;;9.85;73.48
24858;BME280;12935;50.782;6.074;2024-03-29T01:49:15;97221.13;;;9.89;73.05
24858;BME280;12935;50.782;6.074;2024-03-29T01:51:41;97209.31;;;9.92;73.18
24858;BME280;12935;50.782;6.074;2024-03-29T01:54:09;97220.22;;;9.92;73.10
24858;BME280;12935;50.782;6.074;2024-03-29T01:56:38;97203.41;;;9.94;74.00
24858;BME280;12935;50.782;6.074;2024-03-29T01:59:05;97200.88;;;9.99;73.45
24858;BME280;12935;50.782;6.074;2024-03-29T02:01:33;97217.56;;;10.01;73.99
24858;BME280;12935;50.782;6.074;2024-03-29T02:03:59;97210.16;;;10.02;73.83
24858;BME280;12935;50.782;6.074;2024-03-29T02:06:25;97208.06;;;10.06;74.38
24858;BME280;12935;50.782;6.074;2024-03-29T02:08:54;97222.16;;;10.04;73.76
24858;BME280;12935;50.782;6.074;2024-03-29T02:11:21;97234.56;;;10.05;74.42
24858;BME280;12935;50.782;6.074;2024-03-29T02:13:48;97223.78;;;10.02;75.43
24858;BME280;12935;50.782;6.074;2024-03-29T02:16:14;97230.13;;;9.99;76.37
24858;BME280;12935;50.782;6.074;2024-03-29T02:18:40;97220.75;;;10.00;76.68
24858;BME280;12935;50.782;6.074;2024-03-29T02:21:07;97236.66;;;10.01;77.46
24858;BME280;12935;50.782;6.074;2024-03-29T02:23:36;97238.00;;;9.97;79.26
24858;BME280;12935;50.782;6.074;2024-03-29T02:26:02;97225.88;;;9.98;81.01
24858;BME280;12935;50.782;6.074;2024-03-29T02:28:29;97245.91;;;9.82;86.26
24858;BME280;12935;50.782;6.074;2024-03-29T02:30:56;97238.28;;;9.77;88.90
24858;BME280;12935;50.782;6.074;2024-03-29T02:33:22;97246.63;;;9.73;90.22
24858;BME280;12935;50.782;6.074;2024-03-29T02:35:48;97222.97;;;9.70;93.01
24858;BME280;12935;50.782;6.074;2024-03-29T02:38:13;97223.19;;;9.63;93.78
24858;BME280;12935;50.782;6.074;2024-03-29T02:40:39;97231.06;;;9.61;94.57
24858;BME280;12935;50.782;6.074;2024-03-29T02:43:04;97218.81;;;9.44;97.21
24858;BME280;12935;50.782;6.074;2024-03-29T02:45:29;97214.69;;;9.39;99.00
24858;BME280;12935;50.782;6.074;2024-03-29T02:47:55;97228.81;;;9.47;99.09
24858;BME280;12935;50.782;6.074;2024-03-29T02:50:20;97232.44;;;9.44;99.33
24858;BME280;12935;50.782;6.074;2024-03-29T02:52:46;97215.34;;;9.31;100.00
24858;BME280;12935;50.782;6.074;2024-03-29T02:55:12;97222.09;;;9.39;99.76
24858;BME280;12935;50.782;6.074;2024-03-29T02:57:38;97217.72;;;9.41;99.36
24858;BME280;12935;50.782;6.074;2024-03-29T03:00:07;97211.31;;;9.35;100.00
24858;BME280;12935;50.782;6.074;2024-03-29T03:02:40;97204.78;;;9.33;100.00
24858;BME280;12935;50.782;6.074;2024-03-29T03:05:07;97206.84;;;9.29;100.00
24858;BME280;12935;50.782;6.074;2024-03-29T03:07:34;97206.31;;;9.34;100.00
24858;BME280;12935;50.782;6.074;2024-03-29T03:10:18;97205.34;;;9.28;100.00
24858;BME280;12935;50.782;6.074;2024-03-29T03:13:03;97187.22;;;9.34;100.00
24858;BME280;12935;50.782;6.074;2024-03-29T03:15:28;97167.59;;;9.39;100.00
24858;BME280;12935;50.782;6.074;2024-03-29T03:17:55;97169.22;;;9.36;100.00
24858;BME280;12935;50.782;6.074;2024-03-29T03:20:20;97177.53;;;9.33;100.00
24858;BME280;12935;50.782;6.074;2024-03-29T03:22:50;97171.63;;;9.34;100.00
24858;BME280;12935;50.782;6.074;2024-03-29T03:25:16;97167.28;;;9.37;100.00
24858;BME280;12935;50.782;6.074;2024-03-29T03:27:42;97168.41;;;9.27;100.00
24858;BME280;12935;50.782;6.074;2024-03-29T03:30:08;97175.28;;;9.19;100.00
24858;BME280;12935;50.782;6.074;2024-03-29T03:32:34;97172.78;;;9.24;100.00
24858;BME280;12935;50.782;6.074;2024-03-29T03:35:00;97176.75;;;9.32;100.00
24858;BME280;12935;50.782;6.074;2024-03-29T03:37:25;97177.84;;;9.35;100.00
24858;BME280;12935;50.782;6.074;2024-03-29T03:39:51;97176.59;;;9.27;100.00
24858;BME280;12935;50.782;6.074;2024-03-29T03:42:16;97178.41;;;9.30;100.00
24858;BME280;12935;50.782;6.074;2024-03-29T03:44:42;97172.94;;;9.30;100.00
24858;BME280;12935;50.782;6.074;2024-03-29T03:47:08;97178.41;;;9.30;100.00
24858;BME280;12935;50.782;6.074;2024-03-29T03:49:34;97184.19;;;9.32;100.00
24858;BME280;12935;50.782;6.074;2024-03-29T03:52:00;97178.41;;;9.30;100.00
24858;BME280;12935;50.782;6.074;2024-03-29T03:54:26;97162.25;;;9.35;100.00
24858;BME280;12935;50.782;6.074;2024-03-29T03:56:51;97158.00;;;9.34;100.00
24858;BME280;12935;50.782;6.074;2024-03-29T03:59:17;97178.94;;;9.37;100.00
24858;BME280;12935;50.782;6.074;2024-03-29T04:01:42;97182.53;;;9.34;100.00
24858;BME280;12935;50.782;6.074;2024-03-29T04:04:08;97174.81;;;9.33;100.00
24858;BME280;12935;50.782;6.074;2024-03-29T04:06:35;97182.53;;;9.34;100.00
24858;BME280;12935;50.782;6.074;2024-03-29T04:09:01;97177.19;;;9.31;100.00
24858;BME280;12935;50.782;6.074;2024-03-29T04:11:29;97180.84;;;9.28;100.00
24858;BME280;12935;50.782;6.074;2024-03-29T04:13:58;97187.78;;;9.29;100.00
24858;BME280;12935;50.782;6.074;2024-03-29T04:16:23;97177.78;;;9.26;100.00
24858;BME280;12935;50.782;6.074;2024-03-29T04:18:49;97180.19;;;9.24;100.00
24858;BME280;12935;50.782;6.074;2024-03-29T04:21:15;97188.91;;;9.19;100.00
24858;BME280;12935;50.782;6.074;2024-03-29T04:23:41;97183.03;;;9.20;100.00
24858;BME280;12935;50.782;6.074;2024-03-29T04:26:07;97177.13;;;9.22;100.00
24858;BME280;12935;50.782;6.074;2024-03-29T04:28:32;97168.63;;;9.20;100.00
24858;BME280;12935;50.782;6.074;2024-03-29T04:30:59;97163.31;;;9.16;100.00
24858;BME280;12935;50.782;6.074;2024-03-29T04:33:26;97166.16;;;9.12;100.00
24858;BME280;12935;50.782;6.074;2024-03-29T04:36:02;97160.84;;;9.09;100.00
24858;BME280;12935;50.782;6.074;2024-03-29T04:38:29;97154.41;;;9.03;100.00
24858;BME280;12935;50.782;6.074;2024-03-29T04:40:56;97163.03;;;9.01;100.00
24858;BME280;12935;50.782;6.074;2024-03-29T04:43:24;97155.09;;;8.94;100.00
24858;BME280;12935;50.782;6.074;2024-03-29T04:45:50;97153.91;;;8.95;100.00
24858;BME280;12935;50.782;6.074;2024-03-29T04:48:16;97156.63;;;8.95;100.00
24858;BME280;12935;50.782;6.074;2024-03-29T04:50:42;97155.72;;;8.98;100.00
24858;BME280;12935;50.782;6.074;2024-03-29T04:53:08;97148.03;;;8.97;100.00
24858;BME280;12935;50.782;6.074;2024-03-29T04:55:34;97170.56;;;8.85;100.00
24858;BME280;12935;50.782;6.074;2024-03-29T04:58:01;97173.28;;;8.85;100.00
24858;BME280;12935;50.782;6.074;2024-03-29T05:00:26;97156.53;;;8.86;100.00
24858;BME280;12935;50.782;6.074;2024-03-29T05:02:52;97144.78;;;8.76;100.00
24858;BME280;12935;50.782;6.074;2024-03-29T05:05:17;97157.09;;;8.81;100.00
24858;BME280;12935;50.782;6.074;2024-03-29T05:07:43;97146.84;;;8.72;100.00
24858;BME280;12935;50.782;6.074;2024-03-29T05:10:09;97156.34;;;8.68;100.00
24858;BME280;12935;50.782;6.074;2024-03-29T05:12:36;97166.03;;;8.56;100.00
24858;BME280;12935;50.782;6.074;2024-03-29T05:15:05;97158.88;;;8.50;100.00
24858;BME280;12935;50.782;6.074;2024-03-29T05:17:30;97154.06;;;8.54;100.00
24858;BME280;12935;50.782;6.074;2024-03-29T05:19:56;97140.78;;;8.56;100.00
24858;BME280;12935;50.782;6.074;2024-03-29T05:22:22;97141.97;;;8.55;100.00
24858;BME280;12935;50.782;6.074;2024-03-29T05:24:52;97136.78;;;8.48;100.00
24858;BME280;12935;50.782;6.074;2024-03-29T05:27:18;97131.00;;;8.46;100.00
24858;BME280;12935;50.782;6.074;2024-03-29T05:29:44;97132.28;;;8.54;100.00
24858;BME280;12935;50.782;6.074;2024-03-29T05:32:10;97129.03;;;8.59;100.00
24858;BME280;12935;50.782;6.074;2024-03-29T05:34:36;97140.91;;;8.65;100.00
24858;BME280;12935;50.782;6.074;2024-03-29T05:37:02;97122.34;;;8.72;100.00
24858;BME280;12935;50.782;6.074;2024-03-29T05:39:28;97128.25;;;8.71;100.00
24858;BME280;12935;50.782;6.074;2024-03-29T05:41:53;97119.31;;;8.70;100.00
24858;BME280;12935;50.782;6.074;2024-03-29T05:44:19;97115.72;;;8.73;100.00
24858;BME280;12935;50.782;6.074;2024-03-29T05:46:45;97134.75;;;8.86;100.00
24858;BME280;12935;50.782;6.074;2024-03-29T05:49:10;97145.31;;;8.84;100.00
24858;BME280;12935;50.782;6.074;2024-03-29T05:51:36;97151.28;;;8.92;100.00
24858;BME280;12935;50.782;6.074;2024-03-29T05:54:02;97153.47;;;8.97;100.00
24858;BME280;12935;50.782;6.074;2024-03-29T05:56:31;97158.00;;;9.00;100.00
24858;BME280;12935;50.782;6.074;2024-03-29T05:58:57;97156.69;;;9.04;100.00
24858;BME280;12935;50.782;6.074;2024-03-29T06:01:23;97153.75;;;9.11;100.00
24858;BME280;12935;50.782;6.074;2024-03-29T06:03:49;97160.72;;;9.12;100.00
24858;BME280;12935;50.782;6.074;2024-03-29T06:06:20;97160.47;;;9.20;100.00
24858;BME280;12935;50.782;6.074;2024-03-29T06:08:49;97168.09;;;9.25;100.00
24858;BME280;12935;50.782;6.074;2024-03-29T06:11:15;97172.50;;;9.31;100.00
24858;BME280;12935;50.782;6.074;2024-03-29T06:13:41;97166.50;;;9.36;100.00
24858;BME280;12935;50.782;6.074;2024-03-29T06:16:23;97174.88;;;9.42;100.00
24858;BME280;12935;50.782;6.074;2024-03-29T06:19:08;97174.88;;;9.42;100.00
24858;BME280;12935;50.782;6.074;2024-03-29T06:21:33;97172.94;;;9.42;100.00
24858;BME280;12935;50.782;6.074;2024-03-29T06:24:07;97175.72;;;9.52;100.00
24858;BME280;12935;50.782;6.074;2024-03-29T06:26:33;97182.91;;;9.45;100.00
24858;BME280;12935;50.782;6.074;2024-03-29T06:29:00;97183.13;;;9.51;100.00
24858;BME280;12935;50.782;6.074;2024-03-29T06:31:26;97192.72;;;9.56;100.00
24858;BME280;12935;50.782;6.074;2024-03-29T06:33:53;97194.22;;;9.57;100.00
24858;BME280;12935;50.782;6.074;2024-03-29T06:36:18;97197.28;;;9.59;100.00
24858;BME280;12935;50.782;6.074;2024-03-29T06:38:44;97190.31;;;9.58;100.00
24858;BME280;12935;50.782;6.074;2024-03-29T06:41:12;97199.44;;;9.64;100.00
24858;BME280;12935;50.782;6.074;2024-03-29T06:43:41;97191.38;;;9.60;100.00
24858;BME280;12935;50.782;6.074;2024-03-29T06:46:09;97195.31;;;9.59;100.00
24858;BME280;12935;50.782;6.074;2024-03-29T06:48:34;97190.03;;;9.65;100.00
24858;BME280;12935;50.782;6.074;2024-03-29T06:51:00;97193.84;;;9.67;100.00
24858;BME280;12935;50.782;6.074;2024-03-29T06:53:26;97188.63;;;9.60;100.00
24858;BME280;12935;50.782;6.074;2024-03-29T06:55:51;97192.97;;;9.70;100.00
24858;BME280;12935;50.782;6.074;2024-03-29T06:58:17;97184.28;;;9.84;100.00
24858;BME280;12935;50.782;6.074;2024-03-29T07:00:46;97182.31;;;9.85;100.00
24858;BME280;12935;50.782;6.074;2024-03-29T07:03:15;97182.50;;;9.91;100.00
24858;BME280;12935;50.782;6.074;2024-03-29T07:05:41;97186.16;;;9.97;100.00
24858;BME280;12935;50.782;6.074;2024-03-29T07:08:07;97183.94;;;10.04;100.00
24858;BME280;12935;50.782;6.074;2024-03-29T07:10:32;97192.56;;;10.03;100.00
24858;BME280;12935;50.782;6.074;2024-03-29T07:12:58;97191.06;;;10.02;100.00
24858;BME280;12935;50.782;6.074;2024-03-29T07:15:23;97201.84;;;10.05;100.00
24858;BME280;12935;50.782;6.074;2024-03-29T07:17:49;97201.69;;;10.09;100.00
24858;BME280;12935;50.782;6.074;2024-03-29T07:20:16;97205.69;;;10.17;100.00
24858;BME280;12935;50.782;6.074;2024-03-29T07:22:42;97205.44;;;10.24;100.00
24858;BME280;12935;50.782;6.074;2024-03-29T07:25:08;97204.56;;;10.27;100.00
24858;BME280;12935;50.782;6.074;2024-03-29T07:27:33;97214.38;;;10.25;100.00
24858;BME280;12935;50.782;6.074;2024-03-29T07:30:02;97217.88;;;10.25;100.00
24858;BME280;12935;50.782;6.074;2024-03-29T07:32:30;97213.50;;;10.28;100.00
24858;BME280;12935;50.782;6.074;2024-03-29T07:34:56;97218.16;;;10.49;100.00
24858;BME280;12935;50.782;6.074;2024-03-29T07:37:25;97204.97;;;10.57;100.00
24858;BME280;12935;50.782;6.074;2024-03-29T07:39:51;97202.69;;;10.55;100.00
24858;BME280;12935;50.782;6.074;2024-03-29T07:42:17;97217.72;;;10.50;100.00
24858;BME280;12935;50.782;6.074;2024-03-29T07:44:44;97214.09;;;10.53;100.00
24858;BME280;12935;50.782;6.074;2024-03-29T07:47:10;97217.41;;;10.48;100.00
24858;BME280;12935;50.782;6.074;2024-03-29T07:49:38;97214.69;;;10.58;100.00
24858;BME280;12935;50.782;6.074;2024-03-29T07:52:04;97208.97;;;10.65;100.00
24858;BME280;12935;50.782;6.074;2024-03-29T07:54:33;97225.69;;;10.67;100.00
24858;BME280;12935;50.782;6.074;2024-03-29T07:56:59;97237.06;;;10.74;100.00
24858;BME280;12935;50.782;6.074;2024-03-29T07:59:26;97228.31;;;10.88;100.00
24858;BME280;12935;50.782;6.074;2024-03-29T08:01:51;97236.25;;;11.05;100.00
24858;BME280;12935;50.782;6.074;2024-03-29T08:04:17;97224.47;;;11.17;100.00
24858;BME280;12935;50.782;6.074;2024-03-29T08:06:43;97222.66;;;11.32;100.00
24858;BME280;12935;50.782;6.074;2024-03-29T08:09:08;97214.16;;;11.39;100.00
24858;BME280;12935;50.782;6.074;2024-03-29T08:11:35;97210.66;;;11.57;100.00
24858;BME280;12935;50.782;6.074;2024-03-29T08:14:00;97215.97;;;11.70;100.00
24858;BME280;12935;50.782;6.074;2024-03-29T08:16:26;97200.31;;;11.70;100.00
24858;BME280;12935;50.782;6.074;2024-03-29T08:18:51;97204.44;;;11.75;100.00
24858;BME280;12935;50.782;6.074;2024-03-29T08:21:17;97198.69;;;11.91;100.00
24858;BME280;12935;50.782;6.074;2024-03-29T08:23:43;97205.03;;;11.97;100.00
24858;BME280;12935;50.782;6.074;2024-03-29T08:26:11;97197.75;;;11.94;100.00
24858;BME280;12935;50.782;6.074;2024-03-29T08:28:37;97210.09;;;11.80;100.00
24858;BME280;12935;50.782;6.074;2024-03-29T08:31:04;97231.34;;;11.85;100.00
24858;BME280;12935;50.782;6.074;2024-03-29T08:33:31;97227.69;;;11.98;100.00
24858;BME280;12935;50.782;6.074;2024-03-29T08:35:57;97232.09;;;12.04;100.00
24858;BME280;12935;50.782;6.074;2024-03-29T08:38:23;97240.47;;;12.01;100.00
24858;BME280;12935;50.782;6.074;2024-03-29T08:40:49;97236.50;;;12.11;100.00
24858;BME280;12935;50.782;6.074;2024-03-29T08:43:15;97232.19;;;12.28;100.00
24858;BME280;12935;50.782;6.074;2024-03-29T08:45:43;97238.72;;;12.40;100.00
24858;BME280;12935;50.782;6.074;2024-03-29T08:48:09;97231.38;;;12.46;100.00
24858;BME280;12935;50.782;6.074;2024-03-29T08:50:35;97227.13;;;12.45;100.00
24858;BME280;12935;50.782;6.074;2024-03-29T08:53:05;97228.94;;;12.57;100.00
24858;BME280;12935;50.782;6.074;2024-03-29T08:55:31;97209.25;;;12.68;100.00
24858;BME280;12935;50.782;6.074;2024-03-29T08:58:00;97204.53;;;12.68;100.00
24858;BME280;12935;50.782;6.074;2024-03-29T09:00:28;97204.63;;;12.83;100.00
24858;BME280;12935;50.782;6.074;2024-03-29T09:02:54;97193.72;;;12.97;100.00
24858;BME280;12935;50.782;6.074;2024-03-29T09:05:20;97207.22;;;13.10;100.00
24858;BME280;12935;50.782;6.074;2024-03-29T09:07:47;97202.47;;;13.11;100.00
24858;BME280;12935;50.782;6.074;2024-03-29T09:10:13;97209.94;;;13.10;100.00
24858;BME280;12935;50.782;6.074;2024-03-29T09:12:39;97222.69;;;13.22;100.00
24858;BME280;12935;50.782;6.074;2024-03-29T09:15:05;97215.34;;;13.28;100.00
24858;BME280;12935;50.782;6.074;2024-03-29T09:17:39;97228.72;;;13.36;100.00
24858;BME280;12935;50.782;6.074;2024-03-29T09:20:05;97226.66;;;13.45;100.00
24858;BME280;12935;50.782;6.074;2024-03-29T09:22:30;97242.44;;;13.36;100.00
24858;BME280;12935;50.782;6.074;2024-03-29T09:24:56;97233.16;;;13.33;100.00
24858;BME280;12935;50.782;6.074;2024-03-29T09:27:22;97230.25;;;13.37;100.00
24858;BME280;12935;50.782;6.074;2024-03-29T09:29:48;97234.31;;;13.41;100.00
24858;BME280;12935;50.782;6.074;2024-03-29T09:32:17;97239.28;;;13.52;100.00
24858;BME280;12935;50.782;6.074;2024-03-29T09:34:44;97239.06;;;13.55;100.00
24858;BME280;12935;50.782;6.074;2024-03-29T09:37:10;97249.13;;;13.58;100.00
24858;BME280;12935;50.782;6.074;2024-03-29T09:39:35;97260.75;;;13.53;100.00
24858;BME280;12935;50.782;6.074;2024-03-29T09:42:06;97249.41;;;13.60;100.00
24858;BME280;12935;50.782;6.074;2024-03-29T09:44:33;97256.13;;;13.59;100.00
24858;BME280;12935;50.782;6.074;2024-03-29T09:47:03;97266.88;;;13.48;100.00
24858;BME280;12935;50.782;6.074;2024-03-29T09:49:31;97271.31;;;13.46;100.00
24858;BME280;12935;50.782;6.074;2024-03-29T09:51:59;97287.69;;;13.55;100.00
24858;BME280;12935;50.782;6.074;2024-03-29T09:54:30;97274.19;;;13.51;100.00
24858;BME280;12935;50.782;6.074;2024-03-29T09:56:56;97274.34;;;13.48;100.00
24858;BME280;12935;50.782;6.074;2024-03-29T09:59:23;97286.88;;;13.40;100.00
24858;BME280;12935;50.782;6.074;2024-03-29T10:01:50;97288.28;;;13.59;100.00
24858;BME280;12935;50.782;6.074;2024-03-29T10:04:21;97289.09;;;13.74;100.00
24858;BME280;12935;50.782;6.074;2024-03-29T10:06:47;97283.66;;;13.89;100.00
24858;BME280;12935;50.782;6.074;2024-03-29T10:09:21;97280.34;;;13.85;100.00
24858;BME280;12935;50.782;6.074;2024-03-29T10:11:47;97280.63;;;13.87;100.00
24858;BME280;12935;50.782;6.074;2024-03-29T10:14:14;97275.88;;;13.87;100.00
24858;BME280;12935;50.782;6.074;2024-03-29T10:16:40;97277.84;;;14.11;99.58
24858;BME280;12935;50.782;6.074;2024-03-29T10:19:07;97278.03;;;14.07;96.72
24858;BME280;12935;50.782;6.074;2024-03-29T10:21:33;97274.72;;;14.18;97.14
24858;BME280;12935;50.782;6.074;2024-03-29T10:24:11;97269.44;;;14.29;94.85
24858;BME280;12935;50.782;6.074;2024-03-29T10:26:43;97280.00;;;14.45;94.12
24858;BME280;12935;50.782;6.074;2024-03-29T10:29:09;97279.78;;;14.78;92.29
24858;BME280;12935;50.782;6.074;2024-03-29T10:31:36;97271.22;;;15.05;90.06
24858;BME280;12935;50.782;6.074;2024-03-29T10:34:05;97283.00;;;14.91;90.09
24858;BME280;12935;50.782;6.074;2024-03-29T10:36:32;97291.53;;;14.93;89.02
24858;BME280;12935;50.782;6.074;2024-03-29T10:39:09;97283.50;;;14.60;88.92
24858;BME280;12935;50.782;6.074;2024-03-29T10:41:41;97278.03;;;14.36;89.79
24858;BME280;12935;50.782;6.074;2024-03-29T10:44:11;97270.63;;;13.98;91.85
24858;BME280;12935;50.782;6.074;2024-03-29T10:46:38;97290.03;;;13.95;94.06
24858;BME280;12935;50.782;6.074;2024-03-29T10:49:07;97282.47;;;14.19;92.88
24858;BME280;12935;50.782;6.074;2024-03-29T10:51:38;97279.75;;;14.34;90.20
24858;BME280;12935;50.782;6.074;2024-03-29T10:54:04;97272.88;;;14.53;89.48
24858;BME280;12935;50.782;6.074;2024-03-29T10:56:32;97268.72;;;14.43;89.28
24858;BME280;12935;50.782;6.074;2024-03-29T10:59:03;97274.06;;;14.37;88.63
24858;BME280;12935;50.782;6.074;2024-03-29T11:01:32;97282.53;;;14.49;89.09
24858;BME280;12935;50.782;6.074;2024-03-29T11:04:03;97288.88;;;14.69;87.86
24858;BME280;12935;50.782;6.074;2024-03-29T11:06:33;97298.94;;;14.72;87.84
24858;BME280;12935;50.782;6.074;2024-03-29T11:09:04;97300.34;;;14.53;86.61
24858;BME280;12935;50.782;6.074;2024-03-29T11:11:31;97303.97;;;14.59;87.03
24858;BME280;12935;50.782;6.074;2024-03-29T11:14:10;97299.69;;;14.44;87.82
24858;BME280;12935;50.782;6.074;2024-03-29T11:16:39;97300.16;;;14.57;88.26
24858;BME280;12935;50.782;6.074;2024-03-29T11:19:12;97310.97;;;14.75;86.92
24858;BME280;12935;50.782;6.074;2024-03-29T11:21:39;97305.94;;;14.59;85.79
24858;BME280;12935;50.782;6.074;2024-03-29T11:24:07;97289.84;;;14.52;86.90
24858;BME280;12935;50.782;6.074;2024-03-29T11:26:34;97287.75;;;14.76;87.31
24858;BME280;12935;50.782;6.074;2024-03-29T11:29:00;97277.47;;;15.06;86.04
24858;BME280;12935;50.782;6.074;2024-03-29T11:31:27;97294.31;;;15.14;82.63
24858;BME280;12935;50.782;6.074;2024-03-29T11:33:53;97305.25;;;15.08;82.11
24858;BME280;12935;50.782;6.074;2024-03-29T11:36:24;97314.94;;;14.89;81.74
24858;BME280;12935;50.782;6.074;2024-03-29T11:38:57;97336.38;;;14.85;81.02
24858;BME280;12935;50.782;6.074;2024-03-29T11:41:24;97340.91;;;14.58;81.32
24858;BME280;12935;50.782;6.074;2024-03-29T11:43:50;97349.72;;;14.48;82.40
24858;BME280;12935;50.782;6.074;2024-03-29T11:46:16;97351.34;;;14.16;84.13
24858;BME280;12935;50.782;6.074;2024-03-29T11:48:42;97342.25;;;14.24;84.63
24858;BME280;12935;50.782;6.074;2024-03-29T11:51:12;97344.00;;;13.98;88.10
24858;BME280;12935;50.782;6.074;2024-03-29T11:53:39;97354.56;;;14.14;88.46
24858;BME280;12935;50.782;6.074;2024-03-29T11:56:05;97356.00;;;14.24;87.67
24858;BME280;12935;50.782;6.074;2024-03-29T11:58:33;97372.28;;;14.28;87.58
24858;BME280;12935;50.782;6.074;2024-03-29T12:00:59;97372.06;;;14.41;84.75
24858;BME280;12935;50.782;6.074;2024-03-29T12:03:28;97370.50;;;14.25;84.60
24858;BME280;12935;50.782;6.074;2024-03-29T12:05:55;97353.84;;;14.28;84.02
24858;BME280;12935;50.782;6.074;2024-03-29T12:08:25;97364.13;;;14.19;83.87
24858;BME280;12935;50.782;6.074;2024-03-29T12:10:51;97364.78;;;14.14;83.65
24858;BME280;12935;50.782;6.074;2024-03-29T12:13:17;97367.81;;;14.16;84.18
24858;BME280;12935;50.782;6.074;2024-03-29T12:15:43;97374.59;;;14.05;84.98
24858;BME280;12935;50.782;6.074;2024-03-29T12:18:09;97380.66;;;14.10;85.88
24858;BME280;12935;50.782;6.074;2024-03-29T12:20:35;97387.22;;;13.88;86.19
24858;BME280;12935;50.782;6.074;2024-03-29T12:23:05;97379.72;;;13.89;86.26
24858;BME280;12935;50.782;6.074;2024-03-29T12:25:36;97389.38;;;14.08;84.59
24858;BME280;12935;50.782;6.074;2024-03-29T12:28:02;97380.41;;;14.22;83.64
24858;BME280;12935;50.782;6.074;2024-03-29T12:30:30;97375.47;;;14.12;84.55
24858;BME280;12935;50.782;6.074;2024-03-29T12:33:11;97371.25;;;14.01;83.95
24858;BME280;12935;50.782;6.074;2024-03-29T12:35:37;97370.03;;;14.02;83.63
24858;BME280;12935;50.782;6.074;2024-03-29T12:38:04;97368.50;;;14.01;85.18
24858;BME280;12935;50.782;6.074;2024-03-29T12:40:32;97372.13;;;14.08;84.76
24858;BME280;12935;50.782;6.074;2024-03-29T12:43:05;97366.66;;;13.84;86.94
24858;BME280;12935;50.782;6.074;2024-03-29T12:45:34;97367.00;;;13.77;88.41
24858;BME280;12935;50.782;6.074;2024-03-29T12:48:00;97365.00;;;14.25;86.72
24858;BME280;12935;50.782;6.074;2024-03-29T12:50:27;97358.81;;;14.98;84.38
24858;BME280;12935;50.782;6.074;2024-03-29T12:53:06;97347.28;;;15.78;79.78
24858;BME280;12935;50.782;6.074;2024-03-29T12:55:32;97356.78;;;15.57;77.85
24858;BME280;12935;50.782;6.074;2024-03-29T12:58:02;97361.69;;;15.53;78.30
24858;BME280;12935;50.782;6.074;2024-03-29T13:00:30;97372.22;;;15.55;79.18